Time;durP1;ratioP1;P1;durP2;ratioP2;P2;SDS_P1;SDS_P2;PMS_P1;PMS_P2;Temp;Humidity;BMP_temperature;BMP_pressure;BME280_temperature;BME280_humidity;BME280_pressure;Samples;Min_cycle;Max_cycle;Signal;HPM_P1;HPM_P2
2024/01/07 00:02:05;;;;;;;4.33;1.73;;;;;;;0.18;86.27;101303.78;5034518;28;20495;-64
2024/01/07 00:04:34;;;;;;;1.90;0.77;;;;;;;0.21;86.56;101305.19;5034568;28;20471;-65
2024/01/07 00:07:01;;;;;;;1.60;0.60;;;;;;;0.17;87.12;101304.81;5034804;28;20505;-64
2024/01/07 00:09:27;;;;;;;3.90;1.93;;;;;;;0.24;87.48;101305.59;5034820;28;20446;-65
2024/01/07 00:11:54;;;;;;;1.70;0.50;;;;;;;0.21;86.89;101314.00;5034604;28;20486;-65
2024/01/07 00:14:20;;;;;;;1.53;0.40;;;;;;;0.05;85.39;101311.84;5034502;28;20505;-65
2024/01/07 00:16:47;;;;;;;1.60;0.50;;;;;;;0.07;86.59;101308.97;5034229;28;20519;-65
2024/01/07 00:19:14;;;;;;;2.00;1.03;;;;;;;0.04;86.04;101310.19;5034014;28;20475;-65
2024/01/07 00:21:42;;;;;;;1.60;0.40;;;;;;;0.10;85.30;101311.22;5034048;28;20459;-65
2024/01/07 00:24:09;;;;;;;1.53;0.30;;;;;;;0.06;86.20;101316.16;5034261;28;20534;-65
2024/01/07 00:26:35;;;;;;;1.70;0.60;;;;;;;0.04;87.13;101320.84;5034584;28;20489;-65
2024/01/07 00:29:02;;;;;;;1.90;0.90;;;;;;;0.09;87.54;101318.41;5034448;28;20539;-65
2024/01/07 00:31:29;;;;;;;2.20;0.87;;;;;;;-0.03;83.82;101323.56;5034083;28;20459;-65
2024/01/07 00:33:55;;;;;;;1.57;0.30;;;;;;;0.01;84.25;101326.63;5033988;28;20455;-65
2024/01/07 00:36:22;;;;;;;1.57;0.37;;;;;;;0.00;83.42;101335.66;5033700;28;21040;-65
2024/01/07 00:38:50;;;;;;;1.60;0.47;;;;;;;-0.04;81.82;101337.91;5033576;28;20483;-65
2024/01/07 00:41:17;;;;;;;1.60;0.40;;;;;;;-0.07;81.58;101340.19;5033832;28;20471;-65
2024/01/07 00:43:43;;;;;;;3.10;1.57;;;;;;;-0.15;83.08;101345.75;5033527;28;20522;-65
2024/01/07 00:46:10;;;;;;;1.60;0.40;;;;;;;-0.23;83.56;101343.31;5033788;28;20437;-65
2024/01/07 00:48:36;;;;;;;1.60;0.40;;;;;;;-0.22;83.96;101358.25;5033889;28;20450;-65
2024/01/07 00:51:03;;;;;;;1.50;0.30;;;;;;;-0.21;82.89;101359.91;5033675;28;20630;-65
2024/01/07 00:53:30;;;;;;;1.60;0.37;;;;;;;-0.15;82.02;101362.53;5033687;28;20443;-65
2024/01/07 00:55:58;;;;;;;1.50;0.30;;;;;;;-0.15;80.26;101372.34;5033220;28;20497;-64
2024/01/07 00:58:24;;;;;;;4.07;1.03;;;;;;;-0.19;80.79;101373.81;5033907;28;20451;-64
2024/01/07 01:00:53;;;;;;;1.60;0.40;;;;;;;-0.16;82.10;101376.06;5033594;28;20805;-64
2024/01/07 01:03:20;;;;;;;1.50;0.30;;;;;;;-0.16;82.37;101379.53;5033460;28;20463;-64
2024/01/07 01:05:47;;;;;;;1.57;0.30;;;;;;;-0.17;82.65;101377.09;5033597;28;20497;-64
2024/01/07 01:08:14;;;;;;;1.50;0.30;;;;;;;-0.18;82.09;101380.75;5033615;28;20492;-64
2024/01/07 01:10:40;;;;;;;1.60;0.47;;;;;;;-0.28;81.61;101389.19;5033734;28;20439;-64
2024/01/07 01:13:08;;;;;;;1.60;0.40;;;;;;;-0.33;80.98;101384.50;5033778;28;20455;-64
2024/01/07 01:15:35;;;;;;;1.50;0.30;;;;;;;-0.34;81.22;101382.88;5033632;28;20454;-66
2024/01/07 01:18:01;;;;;;;7.00;1.80;;;;;;;-0.38;80.70;101394.94;5033096;28;21065;-65
2024/01/07 01:20:29;;;;;;;1.50;0.40;;;;;;;-0.46;81.64;101387.19;5033331;28;20526;-65
2024/01/07 01:22:55;;;;;;;1.50;0.30;;;;;;;-0.42;81.61;101396.41;5033534;28;20821;-66
2024/01/07 01:25:22;;;;;;;2.73;0.83;;;;;;;-0.48;80.14;101391.91;5033485;28;20488;-66
2024/01/07 01:27:49;;;;;;;1.80;0.70;;;;;;;-0.53;78.82;101391.72;5033685;28;20474;-66
2024/01/07 01:30:16;;;;;;;1.60;0.50;;;;;;;-0.59;80.14;101405.84;5033493;28;20530;-66
2024/01/07 01:32:44;;;;;;;1.60;0.50;;;;;;;-0.56;81.14;101405.44;5033191;28;20466;-66
2024/01/07 01:35:10;;;;;;;1.60;0.40;;;;;;;-0.57;82.17;101406.47;5033274;28;20443;-66
2024/01/07 01:37:37;;;;;;;2.00;0.73;;;;;;;-0.57;79.70;101419.75;5033109;28;20537;-66
2024/01/07 01:40:04;;;;;;;1.53;0.30;;;;;;;-0.59;81.26;101429.78;5033454;28;20443;-66
2024/01/07 01:42:31;;;;;;;1.57;0.37;;;;;;;-0.63;80.94;101423.22;5033488;28;20476;-67
2024/01/07 01:45:01;;;;;;;1.57;0.40;;;;;;;-0.66;80.76;101426.31;5033546;28;21010;-66
2024/01/07 01:47:29;;;;;;;1.50;0.40;;;;;;;-0.60;80.84;101428.16;5033548;28;20443;-66
2024/01/07 01:49:56;;;;;;;1.50;0.30;;;;;;;-0.60;81.85;101431.63;5033529;28;20844;-66
2024/01/07 01:52:23;;;;;;;1.60;0.50;;;;;;;-0.69;79.83;101426.72;5033264;28;20463;-66
2024/01/07 01:54:50;;;;;;;1.60;0.40;;;;;;;-0.77;78.87;101438.38;5033907;28;20537;-66
2024/01/07 01:57:22;;;;;;;1.50;0.30;;;;;;;-0.72;80.60;101433.25;5036535;28;20518;-66
2024/01/07 01:59:49;;;;;;;1.60;0.43;;;;;;;-0.81;79.07;101435.31;5036585;28;20461;-66
2024/01/07 02:02:16;;;;;;;1.60;0.40;;;;;;;-0.75;80.22;101433.69;5036468;28;20643;-66
2024/01/07 02:04:44;;;;;;;1.50;0.30;;;;;;;-0.77;80.81;101428.56;5037061;28;20509;-66
2024/01/07 02:07:11;;;;;;;1.97;0.77;;;;;;;-0.83;80.00;101432.03;5036799;28;20928;-66
2024/01/07 02:09:39;;;;;;;1.60;0.50;;;;;;;-0.93;79.42;101442.28;5036745;28;20466;-66
2024/01/07 02:12:11;;;;;;;1.53;0.30;;;;;;;-0.87;81.85;101445.97;5036599;28;20491;-66
2024/01/07 02:14:38;;;;;;;5.00;1.80;;;;;;;-0.85;81.02;101439.41;5036617;28;20422;-66
2024/01/07 02:17:05;;;;;;;1.50;0.30;;;;;;;-0.87;81.51;101441.47;5036489;28;20573;-66
2024/01/07 02:19:31;;;;;;;1.63;0.47;;;;;;;-0.85;82.63;101442.06;5036270;28;20518;-65
2024/01/07 02:21:59;;;;;;;2.43;0.93;;;;;;;-0.85;82.08;101433.25;5036004;28;21008;-65
2024/01/07 02:24:27;;;;;;;1.50;0.30;;;;;;;-0.89;82.50;101443.47;5036868;28;20641;-65
2024/01/07 02:26:54;;;;;;;1.53;0.30;;;;;;;-0.91;81.82;101445.53;5036359;28;20538;-65
2024/01/07 02:29:20;;;;;;;1.57;0.37;;;;;;;-0.90;81.51;101457.00;5036652;28;20482;-65
2024/01/07 02:31:47;;;;;;;2.30;0.73;;;;;;;-0.91;81.63;101448.19;5036151;28;20455;-65
2024/01/07 02:34:14;;;;;;;1.50;0.30;;;;;;;-0.81;82.39;101456.59;5036199;28;20542;-65
2024/01/07 02:36:41;;;;;;;1.50;0.40;;;;;;;-0.80;82.41;101455.59;5035807;28;21058;-65
2024/01/07 02:39:07;;;;;;;1.80;0.60;;;;;;;-0.82;82.00;101452.28;5036181;28;20478;-65
2024/01/07 02:41:35;;;;;;;1.60;0.40;;;;;;;-0.83;82.02;101458.66;5036289;28;20463;-65
2024/01/07 02:44:02;;;;;;;1.50;0.30;;;;;;;-0.91;81.45;101458.03;5036020;28;20471;-65
2024/01/07 02:46:28;;;;;;;1.70;0.70;;;;;;;-1.00;80.19;101462.72;5035901;28;20475;-66
2024/01/07 02:48:55;;;;;;;1.50;0.30;;;;;;;-1.02;80.95;101462.94;5035799;28;20521;-65
2024/01/07 02:51:22;;;;;;;1.60;0.50;;;;;;;-0.99;81.58;101464.34;5036334;28;20825;-65
2024/01/07 02:53:48;;;;;;;1.50;0.30;;;;;;;-1.02;81.72;101470.06;5035923;28;20543;-65
2024/01/07 02:56:15;;;;;;;1.60;0.47;;;;;;;-1.01;82.48;101469.06;5035590;28;20931;-65
2024/01/07 02:58:43;;;;;;;1.53;0.30;;;;;;;-1.09;81.20;101480.69;5035687;28;20491;-65
2024/01/07 03:01:10;;;;;;;1.60;0.40;;;;;;;-1.07;82.13;101483.97;5035354;28;20497;-64
2024/01/07 03:03:37;;;;;;;2.00;0.70;;;;;;;-1.09;80.80;101479.88;5035694;28;20497;-65
2024/01/07 03:06:04;;;;;;;1.50;0.30;;;;;;;-1.11;81.42;101484.56;5035605;28;20529;-65
2024/01/07 03:08:31;;;;;;;1.57;0.30;;;;;;;-1.22;80.69;101485.16;5035954;28;20834;-65
2024/01/07 03:10:57;;;;;;;1.57;0.30;;;;;;;-1.28;80.61;101479.63;5035236;28;20482;-65
2024/01/07 03:13:24;;;;;;;2.73;0.47;;;;;;;-1.34;81.24;101482.25;5035493;28;20526;-65
2024/01/07 03:15:52;;;;;;;1.60;0.30;;;;;;;-1.35;82.50;101486.75;5035461;28;20439;-65
2024/01/07 03:18:19;;;;;;;1.60;0.50;;;;;;;-1.35;81.24;101486.75;5035084;28;20560;-65
2024/01/07 03:20:45;;;;;;;1.60;0.50;;;;;;;-1.33;81.83;101489.22;5035356;28;20439;-65
2024/01/07 03:23:12;;;;;;;4.17;0.70;;;;;;;-1.38;81.40;101496.97;5034888;28;21013;-64
2024/01/07 03:25:38;;;;;;;1.53;0.30;;;;;;;-1.40;81.38;101494.50;5035268;28;20479;-64
2024/01/07 03:28:05;;;;;;;1.60;0.40;;;;;;;-1.38;81.83;101491.66;5034928;28;20547;-64
2024/01/07 03:30:32;;;;;;;1.50;0.40;;;;;;;-1.40;81.91;101497.16;5035309;28;20443;-64
2024/01/07 03:33:00;;;;;;;3.40;1.40;;;;;;;-1.43;83.01;101497.56;5035322;28;20494;-64
2024/01/07 03:35:27;;;;;;;2.37;1.57;;;;;;;-1.43;82.95;101500.22;5035164;28;20482;-64
2024/01/07 03:37:53;;;;;;;1.53;0.30;;;;;;;-1.44;83.23;101498.59;5034661;28;20523;-66
2024/01/07 03:40:20;;;;;;;1.60;0.40;;;;;;;-1.42;82.70;101509.81;5034945;28;20443;-66
2024/01/07 03:42:47;;;;;;;1.50;0.40;;;;;;;-1.42;83.00;101511.66;5035277;28;20499;-67
2024/01/07 03:45:13;;;;;;;1.60;0.40;;;;;;;-1.46;82.73;101519.22;5034907;28;20543;-65
2024/01/07 03:47:40;;;;;;;1.50;0.30;;;;;;;-1.51;81.29;101518.97;5034497;28;20479;-65
2024/01/07 03:50:09;;;;;;;2.00;0.83;;;;;;;-1.51;82.91;101516.31;5034516;28;20493;-65
2024/01/07 03:52:35;;;;;;;1.60;0.40;;;;;;;-1.52;82.51;101528.78;5034725;28;20463;-65
2024/01/07 03:55:02;;;;;;;1.50;0.30;;;;;;;-1.44;82.96;101530.47;5034744;28;20439;-65
2024/01/07 03:57:28;;;;;;;1.77;0.60;;;;;;;-1.38;84.09;101534.16;5034557;28;20505;-65
2024/01/07 03:59:55;;;;;;;1.53;0.30;;;;;;;-1.39;83.55;101533.34;5034953;28;20526;-65
2024/01/07 04:02:22;;;;;;;1.60;0.50;;;;;;;-1.41;82.65;101538.06;5034254;28;21041;-65
2024/01/07 04:04:48;;;;;;;1.60;0.40;;;;;;;-1.44;82.61;101537.63;5034198;28;20997;-65
2024/01/07 04:07:16;;;;;;;1.60;0.40;;;;;;;-1.60;80.55;101533.44;5034143;28;20474;-65
2024/01/07 04:09:44;;;;;;;2.07;1.10;;;;;;;-1.55;82.43;101546.94;5034025;28;20934;-65
2024/01/07 04:12:10;;;;;;;1.77;0.80;;;;;;;-1.61;81.59;101545.91;5034374;28;20836;-65
2024/01/07 04:14:37;;;;;;;1.50;0.30;;;;;;;-1.67;81.87;101545.91;5033965;28;20439;-65
2024/01/07 04:17:04;;;;;;;1.50;0.30;;;;;;;-1.67;81.60;101548.56;5033659;28;20471;-65
2024/01/07 04:19:31;;;;;;;1.50;0.30;;;;;;;-1.63;82.73;101549.81;5034082;28;20466;-65
2024/01/07 04:21:57;;;;;;;1.57;0.40;;;;;;;-1.52;83.44;101554.53;5034136;28;20472;-65
2024/01/07 04:24:25;;;;;;;2.17;0.83;;;;;;;-1.54;81.74;101554.75;5033998;28;20474;-65
2024/01/07 04:26:52;;;;;;;1.63;0.40;;;;;;;-1.59;81.00;101553.72;5033802;28;20439;-65
2024/01/07 04:29:18;;;;;;;1.60;0.40;;;;;;;-1.61;81.98;101561.03;5034041;28;20455;-65
2024/01/07 04:31:45;;;;;;;1.60;0.40;;;;;;;-1.62;82.46;101556.75;5033630;28;20459;-65
2024/01/07 04:34:12;;;;;;;1.53;0.30;;;;;;;-1.60;83.99;101565.31;5034339;28;20501;-65
2024/01/07 04:36:38;;;;;;;1.60;0.40;;;;;;;-1.53;84.74;101566.19;5033899;28;20445;-65
2024/01/07 04:39:05;;;;;;;1.50;0.30;;;;;;;-1.43;84.69;101574.59;5033752;28;20490;-65
2024/01/07 04:41:33;;;;;;;1.87;1.03;;;;;;;-1.40;83.57;101570.75;5033870;28;20459;-65
2024/01/07 04:43:59;;;;;;;1.70;0.60;;;;;;;-1.37;81.81;101570.38;5033760;28;20453;-65
2024/01/07 04:46:26;;;;;;;4.73;2.10;;;;;;;-1.34;82.17;101570.75;5033929;28;20525;-65
2024/01/07 04:48:52;;;;;;;1.70;0.60;;;;;;;-1.35;81.79;101579.75;5033744;28;20431;-64
2024/01/07 04:51:19;;;;;;;2.20;0.80;;;;;;;-1.37;81.79;101579.16;5033614;28;20538;-64
2024/01/07 04:53:46;;;;;;;1.60;0.40;;;;;;;-1.36;81.24;101580.78;5033445;28;20478;-64
2024/01/07 04:56:13;;;;;;;1.53;0.30;;;;;;;-1.32;81.72;101579.38;5034020;28;20467;-65
2024/01/07 04:58:40;;;;;;;1.73;0.63;;;;;;;-1.24;81.92;101585.53;5033519;28;20486;-65
2024/01/07 05:01:07;;;;;;;1.50;0.30;;;;;;;-1.24;81.71;101588.19;5033232;28;20534;-65
2024/01/07 05:03:35;;;;;;;1.50;0.30;;;;;;;-1.15;82.12;101586.97;5033556;28;20461;-65
2024/01/07 05:06:02;;;;;;;6.80;1.73;;;;;;;-1.18;80.45;101590.06;5033575;28;20484;-65
2024/01/07 05:08:29;;;;;;;1.50;0.40;;;;;;;-1.19;81.25;101583.94;5033498;28;20529;-65
2024/01/07 05:10:55;;;;;;;2.43;1.27;;;;;;;-1.16;82.32;101596.00;5033476;28;20530;-65
2024/01/07 05:13:23;;;;;;;1.50;0.30;;;;;;;-1.17;80.84;101597.00;5033511;28;20871;-65
2024/01/07 05:15:53;;;;;;;1.53;0.40;;;;;;;-1.14;81.07;101597.44;5033706;28;20530;-65
2024/01/07 05:18:21;;;;;;;1.57;0.43;;;;;;;-1.16;80.99;101599.47;5033758;28;20479;-65
2024/01/07 05:20:47;;;;;;;1.50;0.30;;;;;;;-1.14;81.17;101594.78;5033061;28;20895;-65
2024/01/07 05:23:14;;;;;;;1.60;0.40;;;;;;;-1.09;81.52;101599.50;5033635;28;20542;-65
2024/01/07 05:25:43;;;;;;;1.60;0.40;;;;;;;-1.03;81.19;101601.34;5033183;28;20427;-65
2024/01/07 05:28:09;;;;;;;4.77;1.07;;;;;;;-0.98;81.70;101595.44;5033254;28;20443;-65
2024/01/07 05:30:36;;;;;;;1.60;0.40;;;;;;;-0.97;80.72;101594.41;5037771;28;20525;-65
2024/01/07 05:33:04;;;;;;;2.80;0.70;;;;;;;-0.97;80.16;101599.72;5037703;28;20465;-65
2024/01/07 05:35:31;;;;;;;1.60;0.40;;;;;;;-1.00;79.83;101610.78;5037424;28;20496;-65
2024/01/07 05:37:57;;;;;;;1.60;0.40;;;;;;;-1.12;79.04;101605.22;5036739;28;20487;-65
2024/01/07 05:40:24;;;;;;;1.60;0.50;;;;;;;-1.02;80.18;101618.94;5037244;28;20533;-65
2024/01/07 05:42:51;;;;;;;1.50;0.30;;;;;;;-0.89;80.85;101619.00;5037415;28;20542;-65
2024/01/07 05:45:17;;;;;;;2.43;1.13;;;;;;;-0.87;79.92;101624.94;5037084;28;20442;-65
2024/01/07 05:47:44;;;;;;;1.77;0.50;;;;;;;-0.87;79.19;101627.59;5037057;28;20463;-65
2024/01/07 05:50:15;;;;;;;1.57;0.40;;;;;;;-0.80;78.64;101632.94;5036698;28;21006;-65
2024/01/07 05:52:41;;;;;;;1.60;0.40;;;;;;;-0.86;78.79;101633.75;5036957;28;20463;-65
2024/01/07 05:55:08;;;;;;;1.70;0.50;;;;;;;-0.80;78.80;101636.44;5036563;28;20885;-65
2024/01/07 05:57:35;;;;;;;1.80;0.67;;;;;;;-0.76;80.26;101637.66;5036727;28;20590;-65
2024/01/07 06:00:02;;;;;;;1.50;0.40;;;;;;;-0.72;80.25;101642.56;5037145;28;20435;-65
2024/01/07 06:02:28;;;;;;;4.07;2.10;;;;;;;-0.67;79.30;101640.13;5036702;28;20513;-65
2024/01/07 06:04:55;;;;;;;2.07;0.60;;;;;;;-0.67;78.23;101634.81;5036867;28;20825;-65
2024/01/07 06:07:23;;;;;;;1.57;0.40;;;;;;;-0.64;78.34;101642.41;5036688;28;20525;-65
2024/01/07 06:09:49;;;;;;;1.60;0.50;;;;;;;-0.69;77.48;101647.50;5036400;28;20953;-65
2024/01/07 06:12:16;;;;;;;2.53;0.90;;;;;;;-0.76;77.07;101655.44;5036595;28;20462;-66
2024/01/07 06:14:43;;;;;;;1.60;0.50;;;;;;;-0.73;78.66;101641.75;5036669;28;20478;-66
2024/01/07 06:17:09;;;;;;;2.03;0.53;;;;;;;-0.67;78.54;101642.78;5036518;28;20525;-66
2024/01/07 06:19:36;;;;;;;3.60;2.37;;;;;;;-0.63;78.29;101649.34;5036423;28;20514;-66
2024/01/07 06:22:03;;;;;;;1.50;0.30;;;;;;;-0.63;77.58;101662.66;5036171;28;20529;-67
2024/01/07 06:24:31;;;;;;;1.60;0.40;;;;;;;-0.64;77.16;101653.84;5036172;28;20949;-68
2024/01/07 06:26:57;;;;;;;1.50;0.37;;;;;;;-0.61;77.74;101656.13;5036091;28;20642;-68
2024/01/07 06:29:24;;;;;;;1.60;0.40;;;;;;;-0.63;77.32;101655.50;5036263;28;20439;-68
2024/01/07 06:31:51;;;;;;;1.90;0.90;;;;;;;-0.63;77.47;101662.66;5036645;28;20462;-68
2024/01/07 06:34:18;;;;;;;1.50;0.30;;;;;;;-0.59;78.16;101650.59;5035865;28;20443;-68
2024/01/07 06:36:45;;;;;;;1.60;0.40;;;;;;;-0.59;77.48;101655.91;5036449;28;20443;-67
2024/01/07 06:39:11;;;;;;;1.50;0.30;;;;;;;-0.56;77.71;101663.50;5035673;28;20489;-67
2024/01/07 06:41:40;;;;;;;1.70;0.50;;;;;;;-0.60;78.42;101663.09;5035075;28;20458;-67
2024/01/07 06:44:06;;;;;;;1.53;0.30;;;;;;;-0.59;78.14;101658.56;5035989;28;20530;-68
2024/01/07 06:46:34;;;;;;;2.10;0.80;;;;;;;-0.58;78.84;101661.03;5036274;28;20489;-67
2024/01/07 06:49:01;;;;;;;1.83;0.57;;;;;;;-0.64;78.70;101669.00;5035481;28;20454;-68
2024/01/07 06:51:27;;;;;;;1.57;0.40;;;;;;;-0.65;78.42;101673.50;5035953;28;20470;-67
2024/01/07 06:53:54;;;;;;;2.30;1.03;;;;;;;-0.64;78.76;101675.16;5035498;28;20943;-67
2024/01/07 06:56:21;;;;;;;2.67;0.87;;;;;;;-0.61;78.70;101681.91;5035469;28;20443;-67
2024/01/07 06:58:50;;;;;;;1.60;0.50;;;;;;;-0.58;79.01;101679.66;5035660;28;20859;-67
2024/01/07 07:01:20;;;;;;;3.97;2.27;;;;;;;-0.52;80.66;101686.03;5035629;28;21828;-67
2024/01/07 07:03:47;;;;;;;1.50;0.30;;;;;;;-0.48;81.20;101689.94;5035619;28;20424;-67
2024/01/07 07:06:13;;;;;;;2.33;1.57;;;;;;;-0.45;81.12;101688.69;5035630;28;20526;-67
2024/01/07 07:08:40;;;;;;;1.80;0.60;;;;;;;-0.52;80.57;101692.19;5035210;28;20938;-68
2024/01/07 07:11:07;;;;;;;1.60;0.40;;;;;;;-0.52;80.60;101694.84;5035198;28;20973;-66
2024/01/07 07:13:33;;;;;;;1.60;0.50;;;;;;;-0.57;79.89;101696.47;5035582;28;20470;-66
2024/01/07 07:16:02;;;;;;;1.53;0.30;;;;;;;-0.58;79.71;101700.94;5035526;28;20622;-66
2024/01/07 07:18:28;;;;;;;1.93;0.60;;;;;;;-0.65;79.03;101709.94;5035397;28;20489;-66
2024/01/07 07:20:55;;;;;;;1.50;0.30;;;;;;;-0.70;79.60;101696.41;5035317;28;20526;-66
2024/01/07 07:23:21;;;;;;;1.53;0.30;;;;;;;-0.66;79.88;101702.97;5034844;28;20950;-66
2024/01/07 07:25:48;;;;;;;1.60;0.40;;;;;;;-0.61;79.23;101709.34;5035253;28;20435;-66
2024/01/07 07:28:16;;;;;;;1.60;0.47;;;;;;;-0.57;79.55;101715.91;5034833;28;20974;-67
2024/01/07 07:30:42;;;;;;;1.70;0.70;;;;;;;-0.56;78.29;101714.88;5035426;28;20923;-67
2024/01/07 07:33:10;;;;;;;3.20;1.60;;;;;;;-0.57;77.59;101726.53;5035053;28;20970;-67
2024/01/07 07:35:38;;;;;;;1.50;0.30;;;;;;;-0.49;77.88;101733.50;5035188;28;20951;-67
2024/01/07 07:38:05;;;;;;;7.13;0.77;;;;;;;-0.53;77.08;101734.97;5035045;28;20459;-67
2024/01/07 07:40:32;;;;;;;1.60;0.40;;;;;;;-0.51;77.92;101738.22;5034677;28;20440;-67
2024/01/07 07:42:58;;;;;;;1.60;0.50;;;;;;;-0.53;78.04;101745.59;5034789;28;20881;-67
2024/01/07 07:45:25;;;;;;;1.53;0.30;;;;;;;-0.54;78.54;101739.44;5034986;28;20530;-67
2024/01/07 07:47:51;;;;;;;3.03;0.93;;;;;;;-0.52;78.33;101744.56;5034838;28;20489;-67
2024/01/07 07:50:20;;;;;;;1.53;0.30;;;;;;;-0.48;78.12;101750.31;5034868;28;20530;-67
2024/01/07 07:52:46;;;;;;;1.67;0.53;;;;;;;-0.54;77.21;101754.56;5035026;28;20963;-67
2024/01/07 07:55:13;;;;;;;2.87;1.50;;;;;;;-0.53;77.04;101769.56;5034817;28;20526;-67
2024/01/07 07:57:40;;;;;;;1.80;0.77;;;;;;;-0.66;76.04;101767.66;5034515;28;20969;-67
2024/01/07 08:00:12;;;;;;;1.53;0.40;;;;;;;-0.60;76.97;101755.38;5034849;28;20569;-67
2024/01/07 08:02:39;;;;;;;2.10;0.77;;;;;;;-0.59;79.36;101768.47;5034196;28;21013;-67
2024/01/07 08:05:06;;;;;;;1.70;0.63;;;;;;;-0.52;80.00;101765.88;5034839;28;20451;-67
2024/01/07 08:07:34;;;;;;;1.50;0.30;;;;;;;-0.48;78.93;101767.09;5034858;28;20439;-67
2024/01/07 08:10:01;;;;;;;1.60;0.40;;;;;;;-0.45;79.28;101766.69;5034226;28;20985;-67
2024/01/07 08:12:28;;;;;;;2.13;0.50;;;;;;;-0.40;77.29;101774.06;5034285;28;20541;-67
2024/01/07 08:14:54;;;;;;;1.57;0.37;;;;;;;-0.48;77.35;101775.09;5034348;28;20439;-67
2024/01/07 08:17:21;;;;;;;1.50;0.30;;;;;;;-0.48;77.63;101764.44;5034455;28;20439;-67
2024/01/07 08:19:48;;;;;;;1.50;0.30;;;;;;;-0.41;79.15;101770.59;5034225;28;20896;-67
2024/01/07 08:22:14;;;;;;;3.63;0.83;;;;;;;-0.35;78.00;101761.84;5034099;28;20550;-67
2024/01/07 08:24:42;;;;;;;1.60;0.50;;;;;;;-0.34;78.72;101770.63;5034149;28;20439;-67
2024/01/07 08:27:09;;;;;;;2.13;0.97;;;;;;;-0.29;78.17;101770.84;5034067;28;20439;-67
2024/01/07 08:29:36;;;;;;;2.07;0.57;;;;;;;-0.30;78.82;101772.72;5034092;28;20923;-67
2024/01/07 08:32:02;;;;;;;2.10;0.70;;;;;;;-0.21;77.92;101777.84;5034248;28;20541;-67
2024/01/07 08:34:29;;;;;;;1.50;0.30;;;;;;;-0.31;76.34;101781.72;5033980;28;20481;-67
2024/01/07 08:36:56;;;;;;;1.60;0.50;;;;;;;-0.46;77.06;101790.84;5034088;28;20483;-67
2024/01/07 08:39:22;;;;;;;1.50;0.30;;;;;;;-0.41;78.28;101789.22;5033435;28;20993;-67
2024/01/07 08:41:52;;;;;;;1.50;0.30;;;;;;;-0.31;78.62;101787.03;5034084;28;20549;-68
2024/01/07 08:44:18;;;;;;;2.67;1.03;;;;;;;-0.32;78.55;101790.69;5034380;28;20501;-67
2024/01/07 08:46:45;;;;;;;2.77;0.90;;;;;;;-0.28;79.84;101791.94;5033890;28;20495;-66
2024/01/07 08:49:13;;;;;;;1.60;0.53;;;;;;;-0.29;79.20;101784.97;5033744;28;20530;-67
2024/01/07 08:51:40;;;;;;;1.57;0.37;;;;;;;-0.30;78.59;101780.69;5033626;28;20521;-67
2024/01/07 08:54:06;;;;;;;1.50;0.30;;;;;;;-0.29;79.24;101792.16;5033395;28;20439;-67
2024/01/07 08:56:33;;;;;;;1.53;0.30;;;;;;;-0.26;78.68;101784.59;5033354;28;20443;-67
2024/01/07 08:59:01;;;;;;;2.93;0.93;;;;;;;-0.30;78.65;101786.00;5033548;28;20848;-67
2024/01/07 09:01:28;;;;;;;1.50;0.30;;;;;;;-0.29;79.36;101778.84;5033654;28;20542;-67
2024/01/07 09:03:54;;;;;;;1.70;0.67;;;;;;;-0.34;79.69;101781.28;5033417;28;20522;-67
2024/01/07 09:06:21;;;;;;;3.30;1.37;;;;;;;-0.35;80.50;101796.44;5033214;28;20498;-67
2024/01/07 09:08:48;;;;;;;2.27;0.87;;;;;;;-0.33;81.94;101797.03;5033213;28;20485;-67
2024/01/07 09:11:16;;;;;;;3.90;0.90;;;;;;;-0.23;81.47;101806.50;5033399;28;20955;-67
2024/01/07 09:13:42;;;;;;;1.60;0.40;;;;;;;-0.26;80.96;101805.91;5033457;28;20501;-67
2024/01/07 09:16:11;;;;;;;1.93;0.73;;;;;;;-0.24;80.31;101802.19;5033101;28;20917;-67
2024/01/07 09:18:38;;;;;;;3.10;2.10;;;;;;;-0.24;81.03;101810.19;5033273;28;20937;-67
2024/01/07 09:21:06;;;;;;;1.50;0.37;;;;;;;-0.28;80.12;101807.91;5033345;28;20436;-67
2024/01/07 09:23:33;;;;;;;1.60;0.40;;;;;;;-0.31;80.97;101816.31;5033545;28;20439;-73
2024/01/07 09:26:00;;;;;;;2.77;0.97;;;;;;;-0.24;81.92;101810.19;5033443;28;20443;-67
2024/01/07 09:28:26;;;;;;;2.67;0.90;;;;;;;-0.16;81.50;101800.19;5033667;28;20463;-70
2024/01/07 09:30:53;;;;;;;3.57;1.70;;;;;;;-0.14;81.21;101806.13;5033338;28;20438;-69
2024/01/07 09:33:23;;;;;;;1.57;0.37;;;;;;;-0.14;81.32;101807.97;5033540;28;20473;-70
2024/01/07 09:35:50;;;;;;;1.70;0.57;;;;;;;-0.10;81.36;101803.88;5033701;28;20502;-70
2024/01/07 09:38:16;;;;;;;1.83;0.90;;;;;;;-0.18;80.29;101796.06;5033010;28;20447;-70
2024/01/07 09:40:43;;;;;;;1.50;0.30;;;;;;;-0.26;80.64;101800.56;5033057;28;20842;-74
2024/01/07 09:43:10;;;;;;;1.70;0.53;;;;;;;-0.24;80.48;101818.19;5032853;28;20554;-69
2024/01/07 09:45:39;;;;;;;50.73;2.47;;;;;;;-0.36;81.27;101809.94;5032996;28;20482;-71
2024/01/07 09:48:06;;;;;;;1.60;0.40;;;;;;;-0.31;82.08;101808.34;5033233;28;20449;-71
2024/01/07 09:50:34;;;;;;;1.97;0.50;;;;;;;-0.22;82.18;101813.47;5033039;28;20443;-69
2024/01/07 09:53:03;;;;;;;16.03;1.07;;;;;;;-0.17;82.05;101801.22;5032969;28;20494;-69
2024/01/07 09:55:34;;;;;;;1.60;0.30;;;;;;;-0.22;80.72;101816.97;5033260;28;20442;-69
2024/01/07 09:58:01;;;;;;;2.53;1.07;;;;;;;-0.39;81.31;101813.81;5033171;28;20451;-69
2024/01/07 10:00:28;;;;;;;1.60;0.50;;;;;;;-0.41;81.76;101817.69;5033075;28;20569;-69
2024/01/07 10:02:55;;;;;;;3.97;1.27;;;;;;;-0.46;81.78;101817.47;5032946;28;20477;-69
2024/01/07 10:05:22;;;;;;;4.07;1.13;;;;;;;-0.48;82.21;101814.19;5032872;28;20439;-69
2024/01/07 10:07:50;;;;;;;2.37;1.40;;;;;;;-0.45;82.90;101805.78;5033114;28;20439;-69
2024/01/07 10:10:17;;;;;;;2.20;0.60;;;;;;;-0.60;82.92;101805.94;5033033;28;20529;-69
2024/01/07 10:12:45;;;;;;;1.97;1.10;;;;;;;-0.57;84.51;101797.56;5033207;28;20545;-69
2024/01/07 10:15:12;;;;;;;1.57;0.40;;;;;;;-0.56;84.58;101801.88;5033001;28;20443;-69
2024/01/07 10:17:39;;;;;;;1.63;0.47;;;;;;;-0.47;84.48;101803.34;5036398;28;20541;-69
2024/01/07 10:20:09;;;;;;;1.50;0.30;;;;;;;-0.35;83.93;101811.59;5036458;28;20486;-70
2024/01/07 10:22:37;;;;;;;2.30;1.90;;;;;;;-0.35;84.43;101812.41;5036609;28;20498;-70
2024/01/07 10:25:06;;;;;;;11.87;1.97;;;;;;;-0.32;84.19;101805.84;5036420;28;20486;-70
2024/01/07 10:27:34;;;;;;;1.80;0.70;;;;;;;-0.35;84.20;101798.28;5036577;28;20439;-70
2024/01/07 10:30:02;;;;;;;1.60;0.50;;;;;;;-0.27;84.66;101804.25;5035965;28;20485;-70
2024/01/07 10:32:30;;;;;;;1.60;0.30;;;;;;;-0.20;84.30;101801.59;5036638;28;20470;-70
2024/01/07 10:35:03;;;;;;;1.60;0.50;;;;;;;-0.12;83.63;101805.94;5036283;28;20435;-70
2024/01/07 10:37:29;;;;;;;2.27;1.13;;;;;;;-0.18;83.16;101796.88;5036063;28;20470;-70
2024/01/07 10:40:00;;;;;;;1.80;0.60;;;;;;;-0.18;83.55;101801.41;5036675;28;20471;-70
2024/01/07 10:42:30;;;;;;;7.63;1.63;;;;;;;-0.17;84.00;101797.75;5035781;28;21019;-70
2024/01/07 10:44:57;;;;;;;1.60;0.40;;;;;;;-0.12;84.86;101805.94;5036070;28;20479;-70
2024/01/07 10:47:27;;;;;;;2.00;0.73;;;;;;;-0.05;85.28;101798.78;5035982;28;20570;-70
2024/01/07 10:49:57;;;;;;;1.87;0.90;;;;;;;-0.05;83.70;101793.44;5035968;28;20522;-70
2024/01/07 10:52:25;;;;;;;1.57;0.30;;;;;;;-0.04;85.23;101787.13;5035912;28;20555;-70
2024/01/07 10:54:52;;;;;;;1.60;0.40;;;;;;;-0.11;85.11;101776.44;5035732;28;20502;-69
2024/01/07 10:57:33;;;;;;;1.80;0.60;;;;;;;-0.10;85.12;101787.91;5035832;28;20443;-69
2024/01/07 11:00:04;;;;;;;1.53;0.30;;;;;;;-0.12;85.60;101795.28;5036026;28;20688;-69
2024/01/07 11:02:33;;;;;;;1.60;0.40;;;;;;;-0.28;85.88;101773.31;5036114;28;20467;-69
2024/01/07 11:05:07;;;;;;;1.70;0.67;;;;;;;-0.15;86.18;101777.03;5035373;28;20439;-69
2024/01/07 11:07:43;;;;;;;1.60;0.40;;;;;;;-0.13;86.17;101772.34;5035899;28;20447;-69
2024/01/07 11:10:17;;;;;;;2.00;1.23;;;;;;;0.00;86.46;101769.72;5035872;28;20442;-69
2024/01/07 11:12:44;;;;;;;1.70;0.70;;;;;;;0.15;86.94;101773.03;5036287;28;20474;-69
2024/01/07 11:15:12;;;;;;;2.87;1.20;;;;;;;0.27;88.24;101772.41;5036365;28;20522;-69
2024/01/07 11:17:46;;;;;;;1.50;0.30;;;;;;;0.36;88.04;101776.53;5035286;28;20526;-69
2024/01/07 11:20:21;;;;;;;2.37;0.57;;;;;;;0.43;86.67;101775.50;5034988;28;20466;-69
2024/01/07 11:22:48;;;;;;;1.57;0.37;;;;;;;0.44;86.13;101774.50;5035610;28;20561;-69
2024/01/07 11:25:30;;;;;;;1.60;0.40;;;;;;;0.51;86.31;101779.81;5035851;28;20927;-69
2024/01/07 11:27:58;;;;;;;1.50;0.40;;;;;;;0.54;85.17;101783.94;5035323;28;20903;-69